createdAt,value
2019-03-25T00:00:47.097Z,67.85
2019-03-25T00:01:52.611Z,68.23
2019-03-25T00:02:58.112Z,68.42
2019-03-25T00:04:03.618Z,68.23
2019-03-25T00:05:09.137Z,68.13
2019-03-25T00:06:14.645Z,69.18
2019-03-25T00:07:21.050Z,68.71
2019-03-25T00:08:25.653Z,68.71
2019-03-25T00:09:31.160Z,68.80
2019-03-25T00:10:36.696Z,68.71
2019-03-25T00:11:42.190Z,69.09
2019-03-25T00:12:47.680Z,69.37
2019-03-25T00:13:53.188Z,69.18
2019-03-25T00:14:58.708Z,68.80
2019-03-25T00:16:04.206Z,69.75
2019-03-25T00:17:09.719Z,69.56
2019-03-25T00:18:15.219Z,69.37
2019-03-25T00:19:20.729Z,69.56
2019-03-25T00:20:26.241Z,69.27
2019-03-25T00:21:31.736Z,69.27
2019-03-25T00:22:37.259Z,69.56
2019-03-25T00:23:42.757Z,69.56
2019-03-25T00:24:48.276Z,69.56
2019-03-25T00:25:53.782Z,69.75
2019-03-25T00:26:59.282Z,69.56
2019-03-25T00:28:04.787Z,69.46
2019-03-25T00:29:10.296Z,69.75
2019-03-25T00:30:15.807Z,70.42
2019-03-25T00:31:21.310Z,70.51
2019-03-25T00:32:26.817Z,70.61
2019-03-25T00:33:32.333Z,70.32
2019-03-25T00:34:38.553Z,70.13
2019-03-25T00:35:43.348Z,70.51
2019-03-25T00:36:48.854Z,71.08
2019-03-25T00:37:54.366Z,70.89
2019-03-25T00:38:59.865Z,71.18
2019-03-25T00:40:05.374Z,70.70
2019-03-25T00:41:10.883Z,71.27
2019-03-25T00:42:16.390Z,70.89
2019-03-25T00:43:22.562Z,71.22
2019-03-25T00:44:28.046Z,71.02
2019-03-25T00:45:32.913Z,70.64
2019-03-25T00:46:38.431Z,70.64
2019-03-25T00:47:43.933Z,70.45
2019-03-25T00:48:49.431Z,70.45
2019-03-25T00:49:54.943Z,70.54
2019-03-25T00:51:00.449Z,70.45
2019-03-25T00:52:05.955Z,70.42
2019-03-25T00:53:11.461Z,70.07
2019-03-25T00:54:16.972Z,70.17
2019-03-25T00:55:22.469Z,70.93
2019-03-25T00:56:27.983Z,71.31
2019-03-25T00:57:33.493Z,70.26
2019-03-25T00:58:39.002Z,70.07
2019-03-25T00:59:44.508Z,70.36
2019-03-25T01:00:50.022Z,70.36
2019-03-25T01:01:55.527Z,70.45
2019-03-25T01:03:01.029Z,70.54
2019-03-25T01:04:06.537Z,70.54
2019-03-25T01:05:12.050Z,70.17
2019-03-25T01:06:17.553Z,69.69
2019-03-25T01:07:23.062Z,69.98
2019-03-25T01:08:28.569Z,70.17
2019-03-25T01:09:34.077Z,70.54
2019-03-25T01:10:39.585Z,70.07
2019-03-25T01:11:49.312Z,69.79
2019-03-25T01:12:50.603Z,70.17
2019-03-25T01:13:56.110Z,69.69
2019-03-25T01:15:01.616Z,70.17
2019-03-25T01:16:07.128Z,69.88
2019-03-25T01:17:12.651Z,70.26
2019-03-25T01:18:18.143Z,69.69
2019-03-25T01:19:23.648Z,69.79
2019-03-25T01:20:29.247Z,69.50
2019-03-25T01:21:34.666Z,69.50
2019-03-25T01:22:40.170Z,70.17
2019-03-25T01:23:45.689Z,69.88
2019-03-25T01:25:01.304Z,70.17
2019-03-25T01:25:56.698Z,69.98
2019-03-25T01:27:02.202Z,70.07
2019-03-25T01:28:07.715Z,70.17
2019-03-25T01:29:13.219Z,69.60
2019-03-25T01:30:18.729Z,69.60
2019-03-25T01:31:24.233Z,69.50
2019-03-25T01:32:29.742Z,69.31
2019-03-25T01:33:35.256Z,69.88
2019-03-25T01:34:40.758Z,69.31
2019-03-25T01:35:46.273Z,70.26
2019-03-25T01:36:51.777Z,70.07
2019-03-25T01:37:57.285Z,70.17
2019-03-25T01:39:02.792Z,69.50
2019-03-25T01:40:08.299Z,68.93
2019-03-25T01:41:13.806Z,69.02
2019-03-25T01:42:19.318Z,69.50
2019-03-25T01:43:24.841Z,69.02
2019-03-25T01:44:30.329Z,69.60
2019-03-25T01:45:35.841Z,69.50
2019-03-25T01:46:41.343Z,69.79
2019-03-25T01:47:46.857Z,69.41
2019-03-25T01:48:52.361Z,68.93
2019-03-25T01:49:57.872Z,69.02
2019-03-25T01:51:03.377Z,69.21
2019-03-25T01:52:08.893Z,68.74
2019-03-25T01:53:14.392Z,69.02
2019-03-25T01:54:19.912Z,69.21
2019-03-25T01:55:25.411Z,69.21
2019-03-25T01:56:30.914Z,69.02
2019-03-25T01:57:36.423Z,69.02
2019-03-25T01:58:41.931Z,69.60
2019-03-25T01:59:47.440Z,69.50
2019-03-25T02:00:52.952Z,69.50
2019-03-25T02:01:58.455Z,69.21
2019-03-25T02:03:03.965Z,69.31
2019-03-25T02:04:09.475Z,69.02
2019-03-25T02:05:14.980Z,68.93
2019-03-25T02:06:20.487Z,69.02
2019-03-25T02:07:25.995Z,68.93
2019-03-25T02:08:31.506Z,69.31
2019-03-25T02:09:37.018Z,69.63
2019-03-25T02:10:42.519Z,69.82
2019-03-25T02:11:48.026Z,69.92
2019-03-25T02:12:53.540Z,69.44
2019-03-25T02:13:59.046Z,69.44
2019-03-25T02:15:04.553Z,69.73
2019-03-25T02:16:10.058Z,69.44
2019-03-25T02:17:15.575Z,69.35
2019-03-25T02:18:21.078Z,69.63
2019-03-25T02:19:26.595Z,68.87
2019-03-25T02:20:32.093Z,69.35
2019-03-25T02:21:37.601Z,69.25
2019-03-25T02:22:43.304Z,69.54
2019-03-25T02:23:48.618Z,69.54
2019-03-25T02:24:54.123Z,69.44
2019-03-25T02:25:59.630Z,69.73
2019-03-25T02:27:05.144Z,69.44
2019-03-25T02:28:10.646Z,69.44
2019-03-25T02:29:16.158Z,70.20
2019-03-25T02:30:21.672Z,69.82
2019-03-25T02:31:27.185Z,69.63
2019-03-25T02:32:32.677Z,69.63
2019-03-25T02:33:38.190Z,69.63
2019-03-25T02:34:43.705Z,69.82
2019-03-25T02:35:49.207Z,70.49
2019-03-25T02:36:54.723Z,69.92
2019-03-25T02:38:00.225Z,69.73
2019-03-25T02:39:05.736Z,69.35
2019-03-25T02:40:11.241Z,69.73
2019-03-25T02:41:18.912Z,69.92
2019-03-25T02:42:22.263Z,69.54
2019-03-25T02:43:27.770Z,69.63
2019-03-25T02:44:33.274Z,69.54
2019-03-25T02:45:38.782Z,70.20
2019-03-25T02:46:44.301Z,70.01
2019-03-25T02:47:49.794Z,70.30
2019-03-25T02:48:55.308Z,69.92
2019-03-25T02:50:00.815Z,70.68
2019-03-25T02:51:06.319Z,70.49
2019-03-25T02:52:11.831Z,70.39
2019-03-25T02:53:17.336Z,70.20
2019-03-25T02:54:22.843Z,70.68
2019-03-25T02:55:40.852Z,70.39
2019-03-25T02:56:33.870Z,70.01
2019-03-25T02:57:39.372Z,70.20
2019-03-25T02:58:44.880Z,70.30
2019-03-25T02:59:50.387Z,70.77
2019-03-25T03:00:55.896Z,70.97
2019-03-25T03:02:01.405Z,70.97
2019-03-25T03:03:06.911Z,71.25
2019-03-25T03:04:12.421Z,71.15
2019-03-25T03:05:17.926Z,70.87
2019-03-25T03:06:23.442Z,71.25
2019-03-25T03:07:28.950Z,70.68
2019-03-25T03:08:34.450Z,71.06
2019-03-25T03:09:39.984Z,71.06
2019-03-25T03:10:45.466Z,71.06
2019-03-25T03:11:50.974Z,70.97
2019-03-25T03:12:56.483Z,70.87
2019-03-25T03:14:01.992Z,70.87
2019-03-25T03:15:07.502Z,70.97
2019-03-25T03:16:13.010Z,71.15
2019-03-25T03:17:18.523Z,71.15
2019-03-25T03:18:24.024Z,70.77
2019-03-25T03:19:29.536Z,70.97
2019-03-25T03:20:35.040Z,70.58
2019-03-25T03:21:40.648Z,71.44
2019-03-25T03:22:46.075Z,71.91
2019-03-25T03:23:51.566Z,71.91
2019-03-25T03:24:57.078Z,71.34
2019-03-25T03:26:02.581Z,71.44
2019-03-25T03:27:08.093Z,71.34
2019-03-25T03:28:13.603Z,71.34
2019-03-25T03:29:19.115Z,71.72
2019-03-25T03:30:24.616Z,71.53
2019-03-25T03:31:30.121Z,71.91
2019-03-25T03:32:35.636Z,71.44
2019-03-25T03:33:41.153Z,71.82
2019-03-25T03:34:46.659Z,72.01
2019-03-25T03:35:52.159Z,71.82
2019-03-25T03:36:57.671Z,72.01
2019-03-25T03:38:03.185Z,72.11
2019-03-25T03:39:08.682Z,71.82
2019-03-25T03:40:14.222Z,71.63
2019-03-25T03:41:19.696Z,72.49
2019-03-25T03:42:25.259Z,71.72
2019-03-25T03:43:30.718Z,71.72
2019-03-25T03:44:36.220Z,71.53
2019-03-25T03:45:41.733Z,72.30
2019-03-25T03:46:47.242Z,71.91
2019-03-25T03:47:52.752Z,72.11
2019-03-25T03:48:58.257Z,71.72
2019-03-25T03:50:03.764Z,71.82
2019-03-25T03:51:09.271Z,71.63
2019-03-25T03:52:14.783Z,71.72
2019-03-25T03:53:20.290Z,72.49
2019-03-25T03:54:25.793Z,72.49
2019-03-25T03:55:31.306Z,72.30
2019-03-25T03:56:36.826Z,72.30
2019-03-25T03:57:42.325Z,72.20
2019-03-25T03:58:47.833Z,72.49
2019-03-25T03:59:53.337Z,73.34
2019-03-25T04:00:58.850Z,73.72
2019-03-25T04:02:04.357Z,73.91
2019-03-25T04:03:09.871Z,74.20
2019-03-25T04:04:15.374Z,74.29
2019-03-25T04:05:20.880Z,74.48
2019-03-25T04:06:26.392Z,74.96
2019-03-25T04:07:31.902Z,75.62
2019-03-25T04:08:37.402Z,76.10
2019-03-25T04:09:42.916Z,76.96
2019-03-25T04:10:48.422Z,76.96
2019-03-25T04:11:53.927Z,77.24
2019-03-25T04:12:59.449Z,77.81
2019-03-25T04:14:04.948Z,77.81
2019-03-25T04:15:10.459Z,77.81
2019-03-25T04:16:15.974Z,77.62
2019-03-25T04:17:21.477Z,78.10
2019-03-25T04:18:26.984Z,78.57
2019-03-25T04:19:32.487Z,78.77
2019-03-25T04:20:37.998Z,78.57
2019-03-25T04:21:43.508Z,79.24
2019-03-25T04:22:49.011Z,79.33
2019-03-25T04:23:54.523Z,79.52
2019-03-25T04:25:00.032Z,80.10
2019-03-25T04:26:05.536Z,79.43
2019-03-25T04:27:11.045Z,79.81
2019-03-25T04:28:16.572Z,80.38
2019-03-25T04:29:22.076Z,80.00
2019-03-25T04:30:27.570Z,80.10
2019-03-25T04:31:33.081Z,80.24
2019-03-25T04:32:38.604Z,80.15
2019-03-25T04:33:44.096Z,80.53
2019-03-25T04:34:49.601Z,81.01
2019-03-25T04:35:55.118Z,80.82
2019-03-25T04:37:00.621Z,81.10
2019-03-25T04:38:06.125Z,81.58
2019-03-25T04:39:11.636Z,81.77
2019-03-25T04:40:17.146Z,81.77
2019-03-25T04:41:22.646Z,82.71
2019-03-25T04:42:28.158Z,82.71
2019-03-25T04:43:33.669Z,82.62
2019-03-25T04:44:39.172Z,82.62
2019-03-25T04:45:44.687Z,83.29
2019-03-25T04:46:50.187Z,83.00
2019-03-25T04:47:55.688Z,83.67
2019-03-25T04:49:01.221Z,83.48
2019-03-25T04:50:06.716Z,83.67
2019-03-25T04:51:12.224Z,83.29
2019-03-25T04:52:17.729Z,83.58
2019-03-25T04:53:23.234Z,83.48
2019-03-25T04:54:28.743Z,83.86
2019-03-25T04:55:34.251Z,82.91
2019-03-25T04:56:40.217Z,82.53
2019-03-25T04:57:45.273Z,82.71
2019-03-25T04:58:50.774Z,82.91
2019-03-25T04:59:56.281Z,82.71
2019-03-25T05:01:01.794Z,82.15
2019-03-25T05:02:07.299Z,82.62
2019-03-25T05:03:12.810Z,82.91
2019-03-25T05:04:18.314Z,82.34
2019-03-25T05:05:23.820Z,82.43
2019-03-25T05:06:29.328Z,82.24
2019-03-25T05:07:34.841Z,83.29
2019-03-25T05:08:40.340Z,82.53
2019-03-25T05:09:45.858Z,82.62
2019-03-25T05:10:51.355Z,82.15
2019-03-25T05:11:56.871Z,82.53
2019-03-25T05:13:02.377Z,82.53
2019-03-25T05:14:07.882Z,82.53
2019-03-25T05:15:13.391Z,83.00
2019-03-25T05:16:18.901Z,82.91
2019-03-25T05:17:24.408Z,83.39
2019-03-25T05:18:29.914Z,83.29
2019-03-25T05:19:35.422Z,83.48
2019-03-25T05:20:40.934Z,82.91
2019-03-25T05:21:46.449Z,82.62
2019-03-25T05:22:51.944Z,82.81
2019-03-25T05:23:57.461Z,82.71
2019-03-25T05:25:02.961Z,82.34
2019-03-25T05:26:08.467Z,82.53
2019-03-25T05:27:13.985Z,82.81
2019-03-25T05:28:19.482Z,82.34
2019-03-25T05:29:24.995Z,82.43
2019-03-25T05:30:30.500Z,83.29
2019-03-25T05:31:36.008Z,83.29
2019-03-25T05:32:41.513Z,83.29
2019-03-25T05:33:47.024Z,83.00
2019-03-25T05:34:52.532Z,82.53
2019-03-25T05:35:58.039Z,82.53
2019-03-25T05:37:03.546Z,82.34
2019-03-25T05:38:09.055Z,82.62
2019-03-25T05:39:14.564Z,82.81
2019-03-25T05:40:20.075Z,83.48
2019-03-25T05:41:25.576Z,83.29
2019-03-25T05:42:31.084Z,82.71
2019-03-25T05:43:36.593Z,82.81
2019-03-25T05:44:42.101Z,82.24
2019-03-25T05:45:47.605Z,83.29
2019-03-25T05:46:53.119Z,82.91
2019-03-25T05:47:58.621Z,82.71
2019-03-25T05:49:04.134Z,82.81
2019-03-25T05:50:09.640Z,82.71
2019-03-25T05:51:15.150Z,82.24
2019-03-25T05:52:20.658Z,83.39
2019-03-25T05:53:26.164Z,82.91
2019-03-25T05:54:31.675Z,83.29
2019-03-25T05:55:37.177Z,83.10
2019-03-25T05:56:42.690Z,82.91
2019-03-25T05:57:48.194Z,82.53
2019-03-25T05:58:53.705Z,82.53
2019-03-25T05:59:59.211Z,82.24
2019-03-25T06:01:04.717Z,82.81
2019-03-25T06:02:10.225Z,82.24
2019-03-25T06:03:15.738Z,82.24
2019-03-25T06:04:21.238Z,82.15
2019-03-25T06:05:26.752Z,81.77
2019-03-25T06:06:32.258Z,82.24
2019-03-25T06:07:37.769Z,82.34
2019-03-25T06:08:43.271Z,82.81
2019-03-25T06:09:48.783Z,82.43
2019-03-25T06:10:54.288Z,82.24
2019-03-25T06:11:59.802Z,82.53
2019-03-25T06:13:05.304Z,82.34
2019-03-25T06:14:10.809Z,82.43
2019-03-25T06:15:16.327Z,82.53
2019-03-25T06:16:21.832Z,82.15
2019-03-25T06:17:27.336Z,83.29
2019-03-25T06:18:32.844Z,83.00
2019-03-25T06:19:38.356Z,83.58
2019-03-25T06:20:43.861Z,82.96
2019-03-25T06:21:49.368Z,83.39
2019-03-25T06:22:54.877Z,83.67
2019-03-25T06:24:00.384Z,83.48
2019-03-25T06:25:05.894Z,82.81
2019-03-25T06:26:11.398Z,82.58
2019-03-25T06:27:16.907Z,82.81
2019-03-25T06:28:22.414Z,82.39
2019-03-25T06:29:27.922Z,82.39
2019-03-25T06:30:33.427Z,82.20
2019-03-25T06:31:38.956Z,81.92
2019-03-25T06:32:44.454Z,82.87
2019-03-25T06:33:49.953Z,82.96
2019-03-25T06:34:55.461Z,83.44
2019-03-25T06:36:00.965Z,83.06
2019-03-25T06:37:06.474Z,83.06
2019-03-25T06:38:11.982Z,83.06
2019-03-25T06:39:17.487Z,83.53
2019-03-25T06:40:22.996Z,83.82
2019-03-25T06:41:28.502Z,83.44
2019-03-25T06:42:34.012Z,83.53
2019-03-25T06:43:39.525Z,83.44
2019-03-25T06:44:45.023Z,83.82
2019-03-25T06:45:50.535Z,83.72
2019-03-25T06:46:56.043Z,84.01
2019-03-25T06:48:01.549Z,84.48
2019-03-25T06:49:07.058Z,84.48
2019-03-25T06:50:12.562Z,84.77
2019-03-25T06:51:18.070Z,84.10
2019-03-25T06:52:23.579Z,84.10
2019-03-25T06:53:29.083Z,84.67
2019-03-25T06:54:34.595Z,84.48
2019-03-25T06:55:40.099Z,84.77
2019-03-25T06:56:45.607Z,84.48
2019-03-25T06:57:51.115Z,84.67
2019-03-25T06:58:56.623Z,85.05
2019-03-25T07:00:02.133Z,84.77
2019-03-25T07:01:07.644Z,85.10
2019-03-25T07:02:13.152Z,85.47
2019-03-25T07:03:18.654Z,85.57
2019-03-25T07:04:24.160Z,85.57
2019-03-25T07:05:29.670Z,85.28
2019-03-25T07:06:35.181Z,85.95
2019-03-25T07:07:40.684Z,86.05
2019-03-25T07:08:46.193Z,84.91
2019-03-25T07:09:51.701Z,84.81
2019-03-25T07:10:57.209Z,84.81
2019-03-25T07:12:02.725Z,85.76
2019-03-25T07:13:08.223Z,85.00
2019-03-25T07:14:13.732Z,84.81
2019-03-25T07:15:19.239Z,85.19
2019-03-25T07:16:24.741Z,84.72
2019-03-25T07:17:30.254Z,84.62
2019-03-25T07:18:35.762Z,83.58
2019-03-25T07:19:41.273Z,83.76
2019-03-25T07:20:46.786Z,84.33
2019-03-25T07:21:52.286Z,85.33
2019-03-25T07:22:57.793Z,84.76
2019-03-25T07:24:03.301Z,82.95
2019-03-25T07:25:08.823Z,83.10
2019-03-25T07:26:14.321Z,82.86
2019-03-25T07:27:19.828Z,83.23
2019-03-25T07:28:25.329Z,84.00
2019-03-25T07:29:30.845Z,83.90
2019-03-25T07:30:36.347Z,83.81
2019-03-25T07:31:41.854Z,83.52
2019-03-25T07:32:47.362Z,83.04
2019-03-25T07:33:52.873Z,82.86
2019-03-25T07:34:58.377Z,82.19
2019-03-25T07:36:03.888Z,81.90
2019-03-25T07:37:09.392Z,81.62
2019-03-25T07:38:14.903Z,81.71
2019-03-25T07:39:20.417Z,82.28
2019-03-25T07:40:25.916Z,82.19
2019-03-25T07:41:31.440Z,81.71
2019-03-25T07:42:36.952Z,81.62
2019-03-25T07:43:42.443Z,81.33
2019-03-25T07:44:47.948Z,81.90
2019-03-25T07:45:53.462Z,81.90
2019-03-25T07:46:58.967Z,80.76
2019-03-25T07:48:04.477Z,80.57
2019-03-25T07:49:09.988Z,80.76
2019-03-25T07:50:15.497Z,80.86
2019-03-25T07:51:21.000Z,80.76
2019-03-25T07:52:26.513Z,81.33
2019-03-25T07:53:32.040Z,80.57
2019-03-25T07:54:37.532Z,80.00
2019-03-25T07:55:43.033Z,80.00
2019-03-25T07:56:48.538Z,81.81
2019-03-25T07:57:54.049Z,82.09
2019-03-25T07:58:59.558Z,81.05
2019-03-25T08:00:13.388Z,79.52
2019-03-25T08:01:10.589Z,78.96
2019-03-25T08:02:16.100Z,79.62
2019-03-25T08:03:21.591Z,78.96
2019-03-25T08:04:27.096Z,79.24
2019-03-25T08:05:32.613Z,79.24
2019-03-25T08:06:38.128Z,79.14
2019-03-25T08:07:43.645Z,78.96
2019-03-25T08:08:49.138Z,78.96
2019-03-25T08:09:54.639Z,78.38
2019-03-25T08:11:00.159Z,78.86
2019-03-25T08:12:05.657Z,79.09
2019-03-25T08:13:11.238Z,79.75
2019-03-25T08:14:16.678Z,78.48
2019-03-25T08:15:22.221Z,78.42
2019-03-25T08:16:27.686Z,78.23
2019-03-25T08:17:33.198Z,78.33
2019-03-25T08:18:38.709Z,79.19
2019-03-25T08:19:44.215Z,78.42
2019-03-25T08:20:49.719Z,77.91
2019-03-25T08:21:55.228Z,77.62
2019-03-25T08:23:00.741Z,78.42
2019-03-25T08:24:06.258Z,78.29
2019-03-25T08:25:11.751Z,78.10
2019-03-25T08:26:17.260Z,78.33
2019-03-25T08:27:22.778Z,78.90
2019-03-25T08:28:28.278Z,79.05
2019-03-25T08:29:33.788Z,79.72
2019-03-25T08:30:39.302Z,79.24
2019-03-25T08:31:44.807Z,78.96
2019-03-25T08:32:50.320Z,77.81
2019-03-25T08:33:55.827Z,78.19
2019-03-25T08:35:01.342Z,78.77
2019-03-25T08:36:06.848Z,79.62
2019-03-25T08:37:12.343Z,80.23
2019-03-25T08:38:17.854Z,80.10
2019-03-25T08:39:23.358Z,79.91
2019-03-25T08:40:28.865Z,78.96
2019-03-25T08:41:34.381Z,78.86
2019-03-25T08:42:39.885Z,78.77
2019-03-25T08:43:45.393Z,79.14
2019-03-25T08:44:50.897Z,80.15
2019-03-25T08:45:56.411Z,81.29
2019-03-25T08:47:01.915Z,82.05
2019-03-25T08:48:07.429Z,82.81
2019-03-25T08:49:12.931Z,83.10
2019-03-25T08:50:18.442Z,83.39
2019-03-25T08:51:23.949Z,83.86
2019-03-25T08:52:29.454Z,83.86
2019-03-25T08:53:34.967Z,83.62
2019-03-25T08:54:40.483Z,83.82
2019-03-25T08:55:45.979Z,84.58
2019-03-25T08:56:51.487Z,85.34
2019-03-25T08:57:56.992Z,84.86
2019-03-25T08:59:02.505Z,85.62
2019-03-25T09:00:08.008Z,85.34
2019-03-25T09:01:13.517Z,85.34
2019-03-25T09:02:19.034Z,85.81
2019-03-25T09:03:24.530Z,85.81
2019-03-25T09:04:30.037Z,86.38
2019-03-25T09:05:35.551Z,86.38
2019-03-25T09:06:41.059Z,86.47
2019-03-25T09:07:46.568Z,86.52
2019-03-25T09:08:52.077Z,86.61
2019-03-25T09:09:57.573Z,87.05
2019-03-25T09:11:03.086Z,86.90
2019-03-25T09:12:08.587Z,87.47
2019-03-25T09:13:14.095Z,88.23
2019-03-25T09:14:19.611Z,87.66
2019-03-25T09:15:25.109Z,87.28
2019-03-25T09:16:30.619Z,87.09
2019-03-25T09:17:36.133Z,88.13
2019-03-25T09:18:41.636Z,88.33
2019-03-25T09:19:47.140Z,88.09
2019-03-25T09:20:52.661Z,87.90
2019-03-25T09:21:58.167Z,88.28
2019-03-25T09:23:03.665Z,88.94
2019-03-25T09:24:09.170Z,89.70
2019-03-25T09:25:14.698Z,89.32
2019-03-25T09:26:20.198Z,89.14
2019-03-25T09:27:25.690Z,88.18
2019-03-25T09:28:31.231Z,88.28
2019-03-25T09:29:36.713Z,87.42
2019-03-25T09:30:42.221Z,87.13
2019-03-25T09:31:47.728Z,87.04
2019-03-25T09:32:53.245Z,85.42
2019-03-25T09:33:58.747Z,85.47
2019-03-25T09:35:04.252Z,86.32
2019-03-25T09:36:09.762Z,86.04
2019-03-25T09:37:15.372Z,84.80
2019-03-25T09:38:20.779Z,84.80
2019-03-25T09:39:26.292Z,82.70
2019-03-25T09:40:31.798Z,83.09
2019-03-25T09:41:37.304Z,82.80
2019-03-25T09:42:42.813Z,83.65
2019-03-25T09:43:48.316Z,83.85
2019-03-25T09:44:53.823Z,84.52
2019-03-25T09:45:59.335Z,84.80
2019-03-25T09:47:04.847Z,84.42
2019-03-25T09:48:10.350Z,84.13
2019-03-25T09:49:15.893Z,83.80
2019-03-25T09:50:21.367Z,83.61
2019-03-25T09:51:26.872Z,83.51
2019-03-25T09:52:38.574Z,83.03
2019-03-25T09:53:37.890Z,83.80
2019-03-25T09:54:43.400Z,83.32
2019-03-25T09:55:48.914Z,83.03
2019-03-25T09:56:54.412Z,82.18
2019-03-25T09:57:59.931Z,81.79
2019-03-25T09:59:05.429Z,82.08
2019-03-25T10:00:10.948Z,83.41
2019-03-25T10:01:16.451Z,83.13
2019-03-25T10:02:21.955Z,81.89
2019-03-25T10:03:27.459Z,82.18
2019-03-25T10:04:32.974Z,82.93
2019-03-25T10:05:38.482Z,82.46
2019-03-25T10:06:43.995Z,82.37
2019-03-25T10:07:49.516Z,82.18
2019-03-25T10:08:55.016Z,83.22
2019-03-25T10:10:00.523Z,83.32
2019-03-25T10:11:06.029Z,82.37
2019-03-25T10:12:11.542Z,81.37
2019-03-25T10:13:17.043Z,81.09
2019-03-25T10:14:22.550Z,81.47
2019-03-25T10:15:28.053Z,81.56
2019-03-25T10:16:33.576Z,82.61
2019-03-25T10:17:39.075Z,82.99
2019-03-25T10:18:44.587Z,82.99
2019-03-25T10:19:50.097Z,82.61
2019-03-25T10:20:55.605Z,82.51
2019-03-25T10:22:01.119Z,82.51
2019-03-25T10:23:06.629Z,83.18
2019-03-25T10:24:12.136Z,83.09
2019-03-25T10:25:17.644Z,83.65
2019-03-25T10:26:23.149Z,83.65
2019-03-25T10:27:28.662Z,83.98
2019-03-25T10:28:34.165Z,83.41
2019-03-25T10:29:39.673Z,83.03
2019-03-25T10:30:45.182Z,81.51
2019-03-25T10:31:50.688Z,80.27
2019-03-25T10:32:56.195Z,79.60
2019-03-25T10:34:01.704Z,78.94
2019-03-25T10:35:07.218Z,79.32
2019-03-25T10:36:12.724Z,79.28
2019-03-25T10:37:18.231Z,80.08
2019-03-25T10:38:23.745Z,79.85
2019-03-25T10:39:29.249Z,80.04
2019-03-25T10:40:34.757Z,79.85
2019-03-25T10:41:40.268Z,80.04
2019-03-25T10:42:45.773Z,79.66
2019-03-25T10:43:51.283Z,80.13
2019-03-25T10:44:56.791Z,79.94
2019-03-25T10:46:02.309Z,79.94
2019-03-25T10:47:07.806Z,80.04
2019-03-25T10:48:13.315Z,80.80
2019-03-25T10:49:18.828Z,80.04
2019-03-25T10:50:24.332Z,80.33
2019-03-25T10:51:29.842Z,80.80
2019-03-25T10:52:35.379Z,80.71
2019-03-25T10:53:40.859Z,79.28
2019-03-25T10:54:46.507Z,79.70
2019-03-25T10:55:51.876Z,79.19
2019-03-25T10:56:57.379Z,78.27
2019-03-25T10:58:02.890Z,78.46
2019-03-25T10:59:08.405Z,77.13
2019-03-25T11:00:13.910Z,76.65
2019-03-25T11:01:19.417Z,76.94
2019-03-25T11:02:24.924Z,76.65
2019-03-25T11:03:30.425Z,76.56
2019-03-25T11:04:35.943Z,76.84
2019-03-25T11:05:41.468Z,75.70
2019-03-25T11:06:46.961Z,75.13
2019-03-25T11:07:52.472Z,74.50
2019-03-25T11:08:57.973Z,74.60
2019-03-25T11:10:03.486Z,74.98
2019-03-25T11:11:08.990Z,74.50
2019-03-25T11:12:14.503Z,72.88
2019-03-25T11:13:20.008Z,72.97
2019-03-25T11:14:25.518Z,72.97
2019-03-25T11:15:31.027Z,74.02
2019-03-25T11:16:36.534Z,72.97
2019-03-25T11:17:42.044Z,72.97
2019-03-25T11:18:47.560Z,73.36
2019-03-25T11:19:53.065Z,72.85
2019-03-25T11:20:58.575Z,73.80
2019-03-25T11:22:04.084Z,75.67
2019-03-25T11:23:09.592Z,78.52
2019-03-25T11:24:15.287Z,80.10
2019-03-25T11:25:20.605Z,80.57
2019-03-25T11:26:26.131Z,79.72
2019-03-25T11:27:31.631Z,80.38
2019-03-25T11:28:37.130Z,80.86
2019-03-25T11:29:42.646Z,81.05
2019-03-25T11:30:48.154Z,82.19
2019-03-25T11:31:53.659Z,82.15
2019-03-25T11:32:59.166Z,82.62
2019-03-25T11:34:04.677Z,82.86
2019-03-25T11:35:10.194Z,83.33
2019-03-25T11:36:15.730Z,83.52
2019-03-25T11:37:21.201Z,84.85
2019-03-25T11:38:26.705Z,85.04
2019-03-25T11:39:32.215Z,85.61
2019-03-25T11:40:37.718Z,86.18
2019-03-25T11:41:43.230Z,86.04
2019-03-25T11:42:48.743Z,84.99
2019-03-25T11:43:54.245Z,84.33
2019-03-25T11:44:59.755Z,84.52
2019-03-25T11:46:05.259Z,84.33
2019-03-25T11:47:10.769Z,83.09
2019-03-25T11:48:16.290Z,83.09
2019-03-25T11:49:21.802Z,83.75
2019-03-25T11:50:27.299Z,84.33
2019-03-25T11:51:32.814Z,84.13
2019-03-25T11:52:38.311Z,83.28
2019-03-25T11:53:43.822Z,83.47
2019-03-25T11:54:49.327Z,82.99
2019-03-25T11:55:54.845Z,83.28
2019-03-25T11:57:00.339Z,83.09
2019-03-25T11:58:05.849Z,82.99
2019-03-25T11:59:18.260Z,83.18
2019-03-25T12:00:16.868Z,81.76
2019-03-25T12:01:22.388Z,81.56
2019-03-25T12:02:27.888Z,82.08
2019-03-25T12:03:33.391Z,82.18
2019-03-25T12:04:38.900Z,82.27
2019-03-25T12:05:44.410Z,82.37
2019-03-25T12:06:49.932Z,82.46
2019-03-25T12:07:55.434Z,82.21
2019-03-25T12:09:00.926Z,82.21
2019-03-25T12:10:06.454Z,80.88
2019-03-25T12:11:11.958Z,80.31
2019-03-25T12:12:17.460Z,79.93
2019-03-25T12:13:22.985Z,78.41
2019-03-25T12:14:28.470Z,78.35
2019-03-25T12:15:33.996Z,78.25
2019-03-25T12:16:39.493Z,77.11
2019-03-25T12:17:45.004Z,75.68
2019-03-25T12:18:50.515Z,74.92
2019-03-25T12:19:56.023Z,76.57
2019-03-25T12:21:01.530Z,75.91
2019-03-25T12:22:07.041Z,74.10
2019-03-25T12:23:12.543Z,73.43
2019-03-25T12:24:18.064Z,71.04
2019-03-25T12:30:07.931Z,70.63
2019-03-25T12:31:13.418Z,70.21
2019-03-25T12:33:11.814Z,73.39
2019-03-25T12:34:17.378Z,72.63
2019-03-25T12:36:16.138Z,73.77
2019-03-25T12:37:21.620Z,73.49
2019-03-25T12:39:31.552Z,72.72
2019-03-25T12:40:37.060Z,74.25
2019-03-25T12:41:42.567Z,73.33
2019-03-25T12:42:48.076Z,72.96
2019-03-25T12:43:53.586Z,73.24
2019-03-25T12:44:59.094Z,73.05
2019-03-25T12:46:04.604Z,72.00
2019-03-25T12:47:10.112Z,72.19
2019-03-25T12:48:15.616Z,71.81
2019-03-25T12:49:21.129Z,70.98
2019-03-25T12:50:26.645Z,69.46
2019-03-25T12:51:32.153Z,68.51
2019-03-25T12:52:37.652Z,69.08
2019-03-25T12:53:43.161Z,67.07
2019-03-25T12:54:48.671Z,66.22
2019-03-25T12:55:54.182Z,67.68
2019-03-25T12:56:59.690Z,69.21
2019-03-25T12:58:07.373Z,69.21
2019-03-25T12:59:10.703Z,67.05
2019-03-25T13:00:16.232Z,65.80
2019-03-25T13:01:21.728Z,63.99
2019-03-25T13:02:27.229Z,63.39
2019-03-25T13:03:32.748Z,62.81
2019-03-25T13:04:38.253Z,62.43
2019-03-25T13:05:43.779Z,62.34
2019-03-25T13:06:49.272Z,63.86
2019-03-25T13:07:54.782Z,63.54
2019-03-25T13:09:00.374Z,64.50
2019-03-25T13:10:05.801Z,63.83
2019-03-25T13:11:11.318Z,64.02
2019-03-25T13:12:16.818Z,65.33
2019-03-25T13:13:22.327Z,66.28
2019-03-25T13:14:27.849Z,66.94
2019-03-25T13:15:33.355Z,68.38
2019-03-25T13:16:38.854Z,69.10
2019-03-25T13:17:44.365Z,70.06
2019-03-25T13:18:49.877Z,71.39
2019-03-25T13:19:55.383Z,71.36
2019-03-25T13:21:00.908Z,72.69
2019-03-25T13:22:06.402Z,73.07
2019-03-25T13:23:11.907Z,73.26
2019-03-25T13:24:17.424Z,74.50
2019-03-25T13:25:22.936Z,76.79
2019-03-25T13:26:28.445Z,76.69
2019-03-25T13:27:33.949Z,77.26
2019-03-25T13:28:39.464Z,77.55
2019-03-25T13:29:52.635Z,78.46
2019-03-25T13:30:50.478Z,78.56
2019-03-25T13:31:55.988Z,79.89
2019-03-25T13:33:01.500Z,79.41
2019-03-25T13:34:07.017Z,80.99
2019-03-25T13:35:12.534Z,81.28
2019-03-25T13:36:18.025Z,80.90
2019-03-25T13:37:23.537Z,80.80
2019-03-25T13:38:29.048Z,81.32
2019-03-25T13:39:34.551Z,80.41
2019-03-25T13:40:40.050Z,79.10
2019-03-25T13:41:45.568Z,75.70
2019-03-25T13:42:51.077Z,71.82
2019-03-25T13:43:56.591Z,71.15
2019-03-25T13:45:02.106Z,70.45
2019-03-25T13:46:07.617Z,71.12
2019-03-25T13:47:13.128Z,69.56
2019-03-25T13:48:18.637Z,69.02
2019-03-25T13:49:24.152Z,69.18
2019-03-25T13:50:29.659Z,69.09
2019-03-25T13:51:35.167Z,67.88
2019-03-25T13:52:40.670Z,68.51
2019-03-25T13:53:46.183Z,69.27
2019-03-25T13:54:51.697Z,68.76
2019-03-25T13:55:57.208Z,70.01
2019-03-25T13:57:02.722Z,70.48
2019-03-25T13:58:08.252Z,71.21
2019-03-25T13:59:13.734Z,71.50
2019-03-25T14:00:19.251Z,71.75
2019-03-25T14:01:24.758Z,72.32
2019-03-25T14:02:30.271Z,72.03
2019-03-25T14:03:35.778Z,72.96
2019-03-25T14:04:41.293Z,74.29
2019-03-25T14:05:46.803Z,74.38
2019-03-25T14:06:52.317Z,75.34
2019-03-25T14:07:57.829Z,74.63
2019-03-25T14:09:03.346Z,75.59
2019-03-25T14:10:08.847Z,76.48
2019-03-25T14:11:14.364Z,77.25